• Join FlightAware (Why Join?)
  • Login
  • US Flag 
05:04AM EDT


 

Airport Tracker/Info


-or-


 

Live Flight TrackerFlight Track Log ✈ N74972 ✈ 04-May-2012 ✈ KDIK - KBDH

Flight Track Log - Related Links

Times and Time Zones

All times are in EDT time to prevent confusion due to time zone crossing. See the N74972 flight status page for this flight to view local times or setup timezone preferences in your user account.

Time Position Orientation Groundspeed Altitude Reporting Facility
EDT Latitude Longitude Course Direction KTS MPH feet Rate Location/Type
02:09PM 46.7136 -102.4778 107° East 180 207 9,000  Level Minneapolis Center
02:10PM 46.7000 -102.4117 104° East 180 207 8,100 -180 Descending Minneapolis Center
02:11PM 46.6886 -102.3431 105° East 174 200 8,700 420 Climbing Minneapolis Center
02:12PM 46.6753 -102.2711 103° East 174 200 9,000 120 Climbing Minneapolis Center
02:13PM 46.6625 -102.1931 105° East 186 214 9,000  Level Minneapolis Center
02:15PM 46.6328 -102.0336 105° East 199 229 9,000 -60 Level Minneapolis Center
02:16PM 46.6181 -101.9525 106° East 199 229 8,900  Descending Minneapolis Center
02:17PM 46.6028 -101.8772 104° East 199 229 9,000  Climbing Minneapolis Center
02:18PM 46.5881 -101.7931 106° East 199 229 9,000 -60 Level Minneapolis Center
02:19PM 46.5731 -101.7150 106° East 199 229 8,900  Descending Minneapolis Center
02:20PM 46.5578 -101.6369 103° East 199 229 9,100  Climbing Minneapolis Center
02:21PM 46.5447 -101.5564 107° East 199 229 9,000  Descending Minneapolis Center
02:22PM 46.5292 -101.4814 105° East 199 229 9,100  Climbing Minneapolis Center
02:23PM 46.5156 -101.4067 106° East 193 222 9,100  Level Minneapolis Center
02:24PM 46.5000 -101.3289 106° East 198 228 9,100  Level Minneapolis Center
02:25PM 46.4844 -101.2511 107° East 198 228 9,100  Level Minneapolis Center
02:26PM 46.4686 -101.1764 104° East 198 228 9,100 -60 Level Minneapolis Center
02:27PM 46.4553 -101.0989 106° East 193 222 9,000  Descending Minneapolis Center
02:28PM 46.4394 -101.0211 103° East 198 228 9,100  Climbing Minneapolis Center
02:29PM 46.4278 -100.9469 107° East 193 222 9,100  Level Minneapolis Center
02:30PM 46.4117 -100.8725 105° East 193 222 9,100  Level Minneapolis Center
02:31PM 46.3978 -100.7981 106° East 193 222 9,100 -60 Level Minneapolis Center
02:32PM 46.3836 -100.7269 107° East 193 222 9,000  Descending Minneapolis Center
02:33PM 46.3675 -100.6492 106° East 193 222 9,100  Climbing Minneapolis Center
02:37PM 46.3089 -100.3494 107° East 194 223 9,200 120 Climbing Minneapolis Center
02:38PM 46.2944 -100.2814 105° East 186 214 9,800 420 Climbing Minneapolis Center
02:39PM 46.2817 -100.2136 106° East 175 201 10,100 60 Climbing Minneapolis Center
02:40PM 46.2672 -100.1425 107° East 175 201 10,000 -60 Descending Minneapolis Center
02:41PM 46.2508 -100.0653 106° East 182 209 10,000  Level Minneapolis Center
02:42PM 46.2364 -99.9914 107° East 188 216 10,000  Level Minneapolis Center
02:43PM 46.2197 -99.9144 105° East 193 222 10,000  Level Minneapolis Center
02:44PM 46.2053 -99.8375 108° East 193 222 10,000  Level Minneapolis Center
02:45PM 46.1869 -99.7542 107° East 193 222 10,000  Level Minneapolis Center
02:46PM 46.1706 -99.6772 105° East 193 222 10,000  Level Minneapolis Center
02:47PM 46.1561 -99.5975 108° East 198 228 10,000  Level Minneapolis Center
02:48PM 46.1392 -99.5208 106° East 192 221 10,000 -60 Level Minneapolis Center
02:49PM 46.1244 -99.4472 106° East 192 221 9,900  Descending Minneapolis Center
02:50PM 46.1114 -99.3797 108° East 187 215 10,000  Climbing Minneapolis Center
02:51PM 46.0944 -99.3031 108° East 187 215 10,000  Level Minneapolis Center
02:52PM 46.0808 -99.2417 109° East 189 217 10,000  Level Minneapolis Center
02:53PM 46.0603 -99.1556 107° East 189 217 10,000  Level Minneapolis Center
02:54PM 46.0450 -99.0819 107° East 189 217 10,000  Level Minneapolis Center
02:55PM 46.0297 -99.0117 109° East 189 217 10,000  Level Minneapolis Center
02:56PM 46.0125 -98.9381 104° East 189 217 10,000  Level Minneapolis Center
02:57PM 45.9994 -98.8650 108° East 189 217 10,000  Level Minneapolis Center
02:58PM 45.9822 -98.7883 107° East 189 217 10,000  Level Minneapolis Center
02:59PM 45.9667 -98.7153 108° East 189 217 10,000  Level Minneapolis Center
03:00PM 45.9494 -98.6389 107° East 189 217 10,000  Level Minneapolis Center
03:01PM 45.9342 -98.5656 107° East 189 217 10,000  Level Minneapolis Center
03:02PM 45.9186 -98.4925 109° East 189 217 10,000  Level Minneapolis Center
03:03PM 45.8992 -98.4131 108° East 189 217 10,000  Level Minneapolis Center
03:04PM 45.8833 -98.3431 107° East 189 217 10,000  Level Minneapolis Center
03:05PM 45.8694 -98.2792 109° East 189 217 10,000  Level Minneapolis Center
03:06PM 45.8481 -98.1908 107° East 189 217 10,000  Level Minneapolis Center
03:07PM 45.8325 -98.1178 97° East 189 217 10,000  Level Minneapolis Center
03:08PM 45.8256 -98.0308 125° Southeast 209 241 10,000  Level Minneapolis Center
03:09PM 45.7986 -97.9750 109° East 203 234 10,000  Level Minneapolis Center
03:10PM 45.7806 -97.9019 105° East 198 228 10,000  Level Minneapolis Center
03:11PM 45.7650 -97.8203 104° East 203 234 10,000  Level Minneapolis Center
03:12PM 45.7514 -97.7447 113° Southeast 197 227 10,000 -120 Level Minneapolis Center
03:13PM 45.7311 -97.6747 107° East 186 214 9,800 -300 Descending Minneapolis Center
03:14PM 45.7133 -97.5900 109° East 195 224 9,400 -360 Descending Minneapolis Center
03:15PM 45.6933 -97.5053 109° East 211 243 9,100 -180 Descending Minneapolis Center
03:16PM 45.6753 -97.4297 108° East 211 243 9,100  Level Minneapolis Center
03:17PM 45.6592 -97.3572 114° Southeast 205 236 9,100  Level Minneapolis Center
03:18PM 45.6383 -97.2906 106° East 192 221 9,100  Level Minneapolis Center
03:19PM 45.6242 -97.2211 105° East 192 221 9,100  Level Minneapolis Center
03:20PM 45.6117 -97.1550 107° East 187 215 9,100 -60 Level Minneapolis Center
03:21PM 45.5953 -97.0797 108° East 192 221 9,000 -240 Descending Minneapolis Center
03:22PM 45.5772 -96.9983 110° East 195 224 8,700 -360 Descending Minneapolis Center
03:23PM 45.5586 -96.9261 109° East 195 224 8,300 -360 Descending Minneapolis Center
03:24PM 45.5400 -96.8508 109° East 195 224 8,000 -360 Descending Minneapolis Center
03:25PM 45.5214 -96.7756 108° East 195 224 7,700 -360 Descending Minneapolis Center
03:26PM 45.5031 -96.6944 110° East 195 224 7,300 -300 Descending Minneapolis Center
03:27PM 45.4842 -96.6192 108° East 195 224 7,100 -60 Descending Minneapolis Center
03:28PM 45.4675 -96.5442 111° Southeast 190 219 7,200  Climbing Minneapolis Center
03:29PM 45.4486 -96.4750 105° East 190 219 7,200  Level Minneapolis Center
03:30PM 45.4358 -96.4064 106° East 190 219 7,200 -120 Level Minneapolis Center
03:31PM 45.4211 -96.3344 106° East 185 213 7,000 -300 Descending Minneapolis Center
03:32PM 45.4081 -96.2717 103° East 190 219 6,700 -360 Descending Minneapolis Center
03:33PM 45.3953 -96.1942 103° East 197 227 6,300 -420 Descending Minneapolis Center
03:34PM 45.3828 -96.1167 102° East 197 227 5,900 -420 Descending Minneapolis Center
03:35PM 45.3719 -96.0453 102° East 197 227 5,500 -480 Descending Minneapolis Center
03:36PM 45.3608 -95.9739 105° East 191 220 5,000 -300 Descending Minneapolis Center
03:37PM 45.3478 -95.9053 109° East 186 214 5,000  Level Minneapolis Center
03:38PM 45.3306 -95.8336 108° East 180 207 5,000  Level Minneapolis Center
03:39PM 45.3172 -95.7742 101° East 166 191 5,000 -300 Level Minneapolis Center
03:40PM 45.3083 -95.7089 105° East 166 191 4,400 -540 Descending Minneapolis Center
03:41PM 45.2950 -95.6375 106° East 172 198 4,000 -480 Descending Minneapolis Center
03:42PM 45.2817 -95.5719 104° East 172 198 3,500 -480 Descending Minneapolis Center
03:43PM 45.2722 -95.5186 105° East 172 198 3,100 -300 Descending Minneapolis Center
03:44PM 45.2589 -95.4503 103° East 164 189 3,000  Descending Minneapolis Center
03:45PM 45.2514 -95.4028 104° East 152 175 3,100  Climbing Minneapolis Center
03:46PM 45.2439 -95.3611 119° Southeast 125 144 3,100 -120 Level Minneapolis Center
03:47PM 45.2278 -95.3194 134° Southeast 111 128 2,900 -240 Descending Minneapolis Center
03:48PM 45.2036 -95.2833 129° Southeast 123 142 2,700 -120 Descending Minneapolis Center
03:49PM 45.1811 -95.2442 129° Southeast 128 147 2,700  Level Minneapolis Center